Decoded Metar for KBHK (BAKER in MT, USA) (IATA:BHK) | Meteo·Mobile Aviation Weather
aviador You're here:

KBHK Decoded Metar

BAKER in MT, USA
Report Time2018-09-20 09:05:00
UTC Time2018-09-20 09:24:39
Flight Rules mvfr MVFR
Wind100° at 16 Gusting to 23 kt
W.Decomp.*RWY 13: 11.9 kt HW 10.7 kt LCW
W.Rank100° ranks 15
Current wind is above 100° avg. (8.3)
Visibility9999 m
Phenomena:N/A
Clouds:Broken 023 Hf
Overcast 040 Hf
Expected CloudBase > 2,000 ft AGL from Temp-Dew spread
Ceiling2,300 ft
Temp11°C (ISA +2)
Dew Point06°C (72% RH)
AAT4.4°C
QNH1014 hPa
Density Alt3,284 ft
Elevation2,959 ft
Report Wrong Elevation
Raw Report
KBHK 200905Z AUTO 10016G23KT 10SM BKN023 OVC040 11/06 A2995 RMK
AO2 LTG DSNT NW T01060056=

Extra information for KBHK:More info

Metar Taf Metar & Taf Last 4 Metars F.Rules Stats Wind Profile Meteogram Temp Stats Airport Information Weather charts Add Link Nearby VenuesMetar ALERT Operation Metar Decoded Social comments

AIRNAV info for KBHK